Pilar de la Horadada, Spain
Current Conditions -  °F | °C
As of 5:00 PM on Thursday 27 Nov 2014 (Local Time) from LELC Reporting Station
Few Clouds Few Clouds  
Wind Chill: 18°   Ceiling: Unl
Heat Index: 18°   Visibility: 6mi
Dew Point: 15°   Wind: 7mph
Humidity: 83%   Direction: 150°SSE
Pressure: 29.5"   Gusts: NA
Location:  37.87°N, 0.79°W
Report Text: LELC 271600Z 15006KT 120V180 9999 FEW015 18/15 Q0999 NOSIG
Loading
Personal Weather Stations






























Interactive Weather Map New forecast layout! Learn more

10-Day Weather Forecast

Advertisements
Track Severe Weather on mobile